Skip to main content.
 TIME   TEMPERATURE   WINDSPEED   DIRECTION   HUMIDITY   BAROMETER   RAINFALL 
1:15 18.2°C (64.8°F) 9.3 kmh (5.8 mph) N 79% 1007.3hPa (29.75 inHg) 0.0mm (0.00 in.)
12:15 19.0°C (66.2 °F) 16.7 kmh (10.4 mph) N 72% 1009.1hPa (29.80 inHg) 0.0mm (0.00 in.)
11:13 17.0°C (62.6 °F) 13.0 kmh (8.1 mph) N 72% 1009.1hPa (29.80 inHg) 0.0mm (0.00 in.)
10:13 17.0°C (62.6 °F) 13.0 kmh (8.1 mph) N 72% 1009.1hPa (29.80 inHg) 0.0mm (0.00 in.)
9:10 17.0°C (62.6 °F) 16.7 kmh (10.4 mph) N 77% 1009.1hPa (29.80 inHg) 0.0mm (0.00 in.)
8:09 18.2°C (64.8 °F) 9.3 kmh (5.8 mph) N 79% 1006.4hPa (29.72 inHg) 0.0mm (0.00 in.)
7:09 18.2°C (64.8 °F) 9.3 kmh (5.8 mph) N 79% 1006.0hPa (29.71 inHg) 0.0mm (0.00 in.)
6:09 18.2°C (64.8 °F) 9.3 kmh (5.8 mph) N 79% 1006.2hPa (29.71 inHg) 0.0mm (0.00 in.)
5:09 18.2°C (64.8 °F) 5.6 kmh (3.5 mph) N 76% 1006.5hPa (29.72 inHg) 0.0mm (0.00 in.)
4:09 18.2°C (64.8 °F) 5.6 kmh (3.5 mph) N 72% 1006.8hPa (29.73 inHg) 0.0mm (0.00 in.)
3:09 19.9°C (67.8 °F) 20.4 kmh (12.7 mph) N 75% 1007.8hPa (29.76 inHg) 0.0mm (0.00 in.)
2:09 19.9°C (67.8 °F) 20.4 kmh (12.7 mph) N 75% 1008.5hPa (29.78 inHg) 0.0mm (0.00 in.)
1:09 19.9°C (67.8 °F) 20.4 kmh (12.7 mph) N 75% 1009.1hPa (29.80 inHg) 0.0mm (0.00 in.)
12:09 19.9°C (67.8 °F) 20.4 kmh (12.7 mph) N 75% 1009.0hPa (29.80 inHg) 0.0mm (0.00 in.)
11:09 19.9°C (67.8 °F) 20.4 kmh (12.7 mph) N 75% 1009.4hPa (29.81 inHg) 0.0mm (0.00 in.)
10:09 19.9°C (67.8 °F) 20.4 kmh (12.7 mph) N 75% 1009.7hPa (29.82 inHg) 0.0mm (0.00 in.)
9:09 19.9°C (67.8 °F) 20.4 kmh (12.7 mph) N 75% 1009.3hPa (29.80 inHg) 0.0mm (0.00 in.)
8:09 20.2°C (68.4 °F) 14.8 kmh (9.2 mph) N 77% 1009.2hPa (29.80 inHg) 0.0mm (0.00 in.)
7:09 20.7°C (69.3 °F) 13.0 kmh (8.1 mph) N 80% 1008.9hPa (29.79 inHg) 0.0mm (0.00 in.)
6:09 21.1°C (70.0 °F) 16.7 kmh (10.4 mph) N 71% 1008.4hPa (29.78 inHg) 0.0mm (0.00 in.)
5:09 22.1°C (71.8 °F) 9.3 kmh (5.8 mph) N 75% 1008.1hPa (29.77 inHg) 0.0mm (0.00 in.)
4:09 23.3°C (73.9 °F) 3.7 kmh (2.3 mph) N 70% 1008.4hPa (29.78 inHg) 0.0mm (0.00 in.)
3:09 23.3°C (73.9 °F) 16.7 kmh (10.4 mph) N 69% 1008.6hPa (29.78 inHg) 0.0mm (0.00 in.)
2:09 25.0°C (77.0 °F) 9.3 kmh (5.8 mph) N 70% 1008.8hPa (29.79 inHg) 0.0mm (0.00 in.)